createdAt,value
2023-03-12T00:00:48.724Z,100893.53
2023-03-12T00:01:40.421Z,100898.63
2023-03-12T00:02:31.920Z,100902.97
2023-03-12T00:03:23.511Z,100903.75
2023-03-12T00:04:15.007Z,100892.72
2023-03-12T00:05:07.025Z,100903.84
2023-03-12T00:06:06.092Z,100894.59
2023-03-12T00:07:02.191Z,100898.13
2023-03-12T00:07:54.080Z,100897.34
2023-03-12T00:08:46.345Z,100898.25
2023-03-12T00:09:39.650Z,100900.03
2023-03-12T00:10:31.376Z,100895.81
2023-03-12T00:11:23.070Z,100896.69
2023-03-12T00:12:14.571Z,100889.91
2023-03-12T00:13:07.131Z,100898.59
2023-03-12T00:14:00.133Z,100894.34
2023-03-12T00:14:51.652Z,100890.13
2023-03-12T00:15:43.174Z,100900.56
2023-03-12T00:16:34.768Z,100891.19
2023-03-12T00:17:26.304Z,100887.78
2023-03-12T00:18:18.004Z,100888.75
2023-03-12T00:19:12.705Z,100889.63
2023-03-12T00:20:07.016Z,100894.88
2023-03-12T00:20:58.623Z,100888.84
2023-03-12T00:21:50.219Z,100889.16
2023-03-12T00:22:41.777Z,100890.03
2023-03-12T00:23:33.754Z,100887.59
2023-03-12T00:24:25.229Z,100886.81
2023-03-12T00:25:17.585Z,100881.78
2023-03-12T00:26:11.935Z,100886.09
2023-03-12T00:27:03.544Z,100886.03
2023-03-12T00:27:55.047Z,100881.69
2023-03-12T00:28:49.726Z,100880.00
2023-03-12T00:29:41.236Z,100882.69
2023-03-12T00:30:32.714Z,100879.34
2023-03-12T00:31:28.655Z,100884.44
2023-03-12T00:32:21.362Z,100876.00
2023-03-12T00:33:13.102Z,100880.13
2023-03-12T00:34:04.656Z,100880.31
2023-03-12T00:34:56.416Z,100880.31
2023-03-12T00:35:47.966Z,100884.66
2023-03-12T00:36:41.203Z,100879.53
2023-03-12T00:37:35.557Z,100873.44
2023-03-12T00:38:27.150Z,100875.00
2023-03-12T00:39:18.722Z,100869.09
2023-03-12T00:40:11.335Z,100871.84
2023-03-12T00:41:03.058Z,100871.84
2023-03-12T00:41:54.592Z,100876.19
2023-03-12T00:42:46.092Z,100877.09
2023-03-12T00:43:38.588Z,100872.97
2023-03-12T00:44:30.193Z,100872.25
2023-03-12T00:45:21.678Z,100871.47
2023-03-12T00:46:13.536Z,100869.81
2023-03-12T00:47:05.594Z,100864.78
2023-03-12T00:47:57.209Z,100867.44
2023-03-12T00:48:48.878Z,100862.41
2023-03-12T00:49:40.750Z,100864.31
2023-03-12T00:50:32.378Z,100863.50
2023-03-12T00:51:23.976Z,100866.16
2023-03-12T00:52:15.576Z,100865.28
2023-03-12T00:53:07.090Z,100863.72
2023-03-12T00:53:58.612Z,100861.03
2023-03-12T00:54:50.087Z,100857.59
2023-03-12T00:55:41.583Z,100861.81
2023-03-12T00:56:33.295Z,100864.38
2023-03-12T00:57:25.037Z,100859.47
2023-03-12T00:58:16.736Z,100862.13
2023-03-12T00:59:08.308Z,100861.25
2023-03-12T00:59:59.843Z,100861.25
2023-03-12T01:00:51.594Z,100859.47
2023-03-12T01:01:44.747Z,100855.91
2023-03-12T01:02:37.995Z,100857.50
2023-03-12T01:03:29.682Z,100857.59
2023-03-12T01:04:21.498Z,100853.34
2023-03-12T01:05:14.434Z,100855.84
2023-03-12T01:06:07.875Z,100859.47
2023-03-12T01:06:59.432Z,100863.03
2023-03-12T01:07:51.116Z,100864.81
2023-03-12T01:08:42.691Z,100857.22
2023-03-12T01:09:34.255Z,100860.56
2023-03-12T01:10:25.763Z,100857.34
2023-03-12T01:11:20.105Z,100862.44
2023-03-12T01:12:11.589Z,100866.78
2023-03-12T01:13:03.516Z,100862.53
2023-03-12T01:13:55.326Z,100863.44
2023-03-12T01:14:46.915Z,100862.72
2023-03-12T01:15:38.752Z,100865.41
2023-03-12T01:16:30.687Z,100853.47
2023-03-12T01:17:22.428Z,100861.16
2023-03-12T01:18:14.368Z,100854.38
2023-03-12T01:19:05.903Z,100857.72
2023-03-12T01:19:57.434Z,100860.38
2023-03-12T01:20:49.620Z,100855.25
2023-03-12T01:21:41.407Z,100856.03
2023-03-12T01:22:32.958Z,100859.50
2023-03-12T01:23:24.709Z,100853.47
2023-03-12T01:24:16.287Z,100860.47
2023-03-12T01:25:09.540Z,100851.81
2023-03-12T01:26:01.066Z,100855.16
2023-03-12T01:26:52.661Z,100849.34
2023-03-12T01:27:44.278Z,100854.38
2023-03-12T01:28:35.792Z,100850.13
2023-03-12T01:29:27.338Z,100844.91
2023-03-12T01:30:18.898Z,100846.50
2023-03-12T01:31:15.010Z,100839.59
2023-03-12T01:32:06.809Z,100837.03
2023-03-12T01:32:58.781Z,100838.69
2023-03-12T01:33:52.474Z,100834.50
2023-03-12T01:34:44.984Z,100837.91
2023-03-12T01:35:41.238Z,100832.78
2023-03-12T01:36:32.919Z,100831.13
2023-03-12T01:37:24.789Z,100828.47
2023-03-12T01:38:16.397Z,100828.38
2023-03-12T01:39:07.935Z,100827.47
2023-03-12T01:40:00.143Z,100818.94
2023-03-12T01:40:51.796Z,100818.94
2023-03-12T01:41:43.414Z,100824.06
2023-03-12T01:42:34.931Z,100822.34
2023-03-12T01:43:35.369Z,100821.50
2023-03-12T01:44:28.658Z,100814.69
2023-03-12T01:45:51.068Z,100823.53
2023-03-12T01:46:44.440Z,100815.00
2023-03-12T01:47:39.091Z,100823.53
2023-03-12T01:48:41.673Z,100821.75
2023-03-12T01:49:34.876Z,100822.75
2023-03-12T01:50:27.046Z,100822.75
2023-03-12T01:51:21.048Z,100825.22
2023-03-12T01:52:16.920Z,100813.22
2023-03-12T01:53:13.026Z,100816.56
2023-03-12T01:54:10.952Z,100817.53
2023-03-12T01:55:16.078Z,100828.66
2023-03-12T01:56:12.130Z,100822.75
2023-03-12T01:57:09.848Z,100817.63
2023-03-12T01:58:02.335Z,100811.72
2023-03-12T01:58:58.653Z,100824.44
2023-03-12T01:59:56.483Z,100812.13
2023-03-12T02:00:48.373Z,100812.03
2023-03-12T02:01:43.256Z,100808.50
2023-03-12T02:02:36.625Z,100807.28
2023-03-12T02:03:30.211Z,100807.09
2023-03-12T02:04:25.775Z,100794.22
2023-03-12T02:05:23.362Z,100802.56
2023-03-12T02:06:16.048Z,100797.38
2023-03-12T02:07:14.724Z,100798.16
2023-03-12T02:08:06.451Z,100797.16
2023-03-12T02:09:01.651Z,100790.28
2023-03-12T02:09:53.492Z,100787.72
2023-03-12T02:10:46.097Z,100775.81
2023-03-12T02:11:38.704Z,100782.81
2023-03-12T02:12:30.680Z,100773.44
2023-03-12T02:13:22.574Z,100776.00
2023-03-12T02:14:14.482Z,100775.19
2023-03-12T02:15:06.825Z,100776.97
2023-03-12T02:15:58.700Z,100777.97
2023-03-12T02:16:51.975Z,100781.63
2023-03-12T02:17:44.097Z,100776.78
2023-03-12T02:18:36.258Z,100780.41
2023-03-12T02:19:36.610Z,100779.81
2023-03-12T02:20:47.094Z,100780.03
2023-03-12T02:21:39.526Z,100778.34
2023-03-12T02:22:31.674Z,100782.75
2023-03-12T02:23:31.987Z,100781.31
2023-03-12T02:25:03.844Z,100776.38
2023-03-12T02:25:57.356Z,100773.09
2023-03-12T02:26:49.744Z,100772.22
2023-03-12T02:27:42.426Z,100766.22
2023-03-12T02:28:42.597Z,100765.22
2023-03-12T02:29:38.553Z,100761.00
2023-03-12T02:30:33.325Z,100763.56
2023-03-12T02:31:35.049Z,100771.44
2023-03-12T02:32:33.623Z,100766.31
2023-03-12T02:33:26.111Z,100766.31
2023-03-12T02:34:17.651Z,100767.19
2023-03-12T02:35:09.771Z,100770.66
2023-03-12T02:36:01.370Z,100775.97
2023-03-12T02:36:53.952Z,100774.50
2023-03-12T02:37:55.410Z,100771.03
2023-03-12T02:38:49.797Z,100771.94
2023-03-12T02:39:43.374Z,100769.44
2023-03-12T02:40:42.087Z,100769.56
2023-03-12T02:41:41.439Z,100765.41
2023-03-12T02:42:34.004Z,100770.41
2023-03-12T02:43:25.789Z,100777.31
2023-03-12T02:44:22.211Z,100776.63
2023-03-12T02:45:15.842Z,100777.81
2023-03-12T02:46:08.521Z,100773.16
2023-03-12T02:47:01.637Z,100768.91
2023-03-12T02:47:53.422Z,100772.44
2023-03-12T02:48:44.926Z,100759.63
2023-03-12T02:49:36.466Z,100769.00
2023-03-12T02:50:28.184Z,100763.91
2023-03-12T02:51:19.761Z,100758.66
2023-03-12T02:52:11.271Z,100765.38
2023-03-12T02:53:03.362Z,100761.94
2023-03-12T02:53:55.056Z,100762.81
2023-03-12T02:54:47.372Z,100771.28
2023-03-12T02:55:39.012Z,100756.81
2023-03-12T02:56:30.710Z,100762.81
2023-03-12T02:57:22.813Z,100762.00
2023-03-12T02:58:14.386Z,100757.38
2023-03-12T02:59:06.821Z,100767.50
2023-03-12T03:00:01.886Z,100768.31
2023-03-12T03:00:55.602Z,100765.66
2023-03-12T03:01:51.569Z,100769.09
2023-03-12T03:02:43.185Z,100769.09
2023-03-12T03:03:34.711Z,100764.75
2023-03-12T03:04:27.892Z,100768.22
2023-03-12T03:05:20.392Z,100767.44
2023-03-12T03:06:13.139Z,100755.50
2023-03-12T03:07:04.966Z,100768.41
2023-03-12T03:07:56.522Z,100767.63
2023-03-12T03:08:48.156Z,100760.00
2023-03-12T03:09:39.657Z,100758.34
2023-03-12T03:10:31.784Z,100757.44
2023-03-12T03:11:24.646Z,100757.56
2023-03-12T03:12:18.439Z,100757.56
2023-03-12T03:13:10.060Z,100751.44
2023-03-12T03:14:03.880Z,100754.81
2023-03-12T03:14:55.541Z,100755.78
2023-03-12T03:15:47.128Z,100754.88
2023-03-12T03:16:38.797Z,100752.25
2023-03-12T03:17:30.309Z,100747.91
2023-03-12T03:18:21.983Z,100743.41
2023-03-12T03:19:13.751Z,100747.72
2023-03-12T03:20:10.938Z,100750.38
2023-03-12T03:21:06.257Z,100752.06
2023-03-12T03:21:58.867Z,100745.16
2023-03-12T03:22:50.332Z,100748.53
2023-03-12T03:23:43.297Z,100750.28
2023-03-12T03:24:36.125Z,100752.84
2023-03-12T03:25:27.709Z,100747.63
2023-03-12T03:26:21.551Z,100747.72
2023-03-12T03:27:14.837Z,100747.81
2023-03-12T03:28:06.512Z,100739.25
2023-03-12T03:28:58.204Z,100731.47
2023-03-12T03:29:52.653Z,100734.91
2023-03-12T03:30:44.242Z,100729.78
2023-03-12T03:31:35.978Z,100728.09
2023-03-12T03:32:28.355Z,100724.84
2023-03-12T03:33:20.529Z,100727.31
2023-03-12T03:34:12.559Z,100729.06
2023-03-12T03:35:04.359Z,100729.19
2023-03-12T03:35:59.446Z,100732.72
2023-03-12T03:36:52.284Z,100731.81
2023-03-12T03:37:44.302Z,100731.81
2023-03-12T03:38:36.708Z,100731.81
2023-03-12T03:39:29.446Z,100729.25
2023-03-12T03:40:21.188Z,100729.25
2023-03-12T03:41:12.763Z,100729.38
2023-03-12T03:42:08.445Z,100726.00
2023-03-12T03:43:00.232Z,100723.03
2023-03-12T03:43:51.891Z,100728.22
2023-03-12T03:44:45.015Z,100733.63
2023-03-12T03:45:36.751Z,100735.22
2023-03-12T03:46:28.306Z,100733.44
2023-03-12T03:47:25.452Z,100739.38
2023-03-12T03:48:16.945Z,100736.81
2023-03-12T03:49:08.487Z,100737.50
2023-03-12T03:50:01.819Z,100740.06
2023-03-12T03:50:53.551Z,100741.03
2023-03-12T03:51:45.110Z,100739.25
2023-03-12T03:52:40.687Z,100738.41
2023-03-12T03:53:32.840Z,100738.41
2023-03-12T03:54:24.426Z,100732.38
2023-03-12T03:55:16.055Z,100735.84
2023-03-12T03:56:13.668Z,100727.34
2023-03-12T03:57:09.264Z,100729.00
2023-03-12T03:58:00.931Z,100730.72
2023-03-12T03:58:52.721Z,100729.22
2023-03-12T03:59:45.829Z,100731.78
2023-03-12T04:00:37.629Z,100733.44
2023-03-12T04:01:29.545Z,100729.31
2023-03-12T04:02:21.681Z,100727.66
2023-03-12T04:03:14.150Z,100727.72
2023-03-12T04:04:05.972Z,100726.13
2023-03-12T04:04:59.141Z,100726.13
2023-03-12T04:06:00.859Z,100722.88
2023-03-12T04:06:53.129Z,100716.97
2023-03-12T04:07:45.176Z,100721.09
2023-03-12T04:08:38.283Z,100718.44
2023-03-12T04:09:33.200Z,100721.00
2023-03-12T04:10:24.972Z,100721.78
2023-03-12T04:11:20.731Z,100718.38
2023-03-12T04:12:12.758Z,100713.41
2023-03-12T04:13:05.897Z,100719.78
2023-03-12T04:13:58.377Z,100719.69
2023-03-12T04:14:53.206Z,100727.38
2023-03-12T04:15:53.493Z,100720.13
2023-03-12T04:16:45.365Z,100722.69
2023-03-12T04:17:37.115Z,100720.06
2023-03-12T04:18:29.074Z,100717.38
2023-03-12T04:19:20.899Z,100727.56
2023-03-12T04:20:12.806Z,100725.88
2023-03-12T04:21:08.250Z,100729.16
2023-03-12T04:22:01.030Z,100724.91
2023-03-12T04:22:52.628Z,100720.69
2023-03-12T04:23:44.155Z,100728.44
2023-03-12T04:24:37.657Z,100721.53
2023-03-12T04:25:29.368Z,100718.91
2023-03-12T04:26:20.878Z,100720.69
2023-03-12T04:27:12.482Z,100716.41
2023-03-12T04:28:05.982Z,100716.41
2023-03-12T04:29:00.686Z,100712.19
2023-03-12T04:29:52.334Z,100710.50
2023-03-12T04:30:44.096Z,100715.91
2023-03-12T04:31:35.643Z,100710.66
2023-03-12T04:32:27.305Z,100702.91
2023-03-12T04:33:18.803Z,100711.56
2023-03-12T04:34:12.609Z,100713.22
2023-03-12T04:35:05.930Z,100703.94
2023-03-12T04:35:58.366Z,100710.84
2023-03-12T04:36:50.323Z,100701.38
2023-03-12T04:37:41.806Z,100700.88
2023-03-12T04:38:34.503Z,100701.84
2023-03-12T04:39:26.222Z,100705.22
2023-03-12T04:40:19.241Z,100708.69
2023-03-12T04:41:13.978Z,100701.66
2023-03-12T04:42:11.847Z,100701.59
2023-03-12T04:43:05.431Z,100698.94
2023-03-12T04:43:56.937Z,100706.72
2023-03-12T04:44:52.375Z,100705.03
2023-03-12T04:45:44.012Z,100700.88
2023-03-12T04:46:35.614Z,100704.41
2023-03-12T04:47:27.196Z,100698.41
2023-03-12T04:48:18.841Z,100700.25
2023-03-12T04:49:11.334Z,100700.53
2023-03-12T04:50:05.067Z,100703.97
2023-03-12T04:50:57.015Z,100702.19
2023-03-12T04:51:48.699Z,100697.97
2023-03-12T04:52:40.391Z,100704.06
2023-03-12T04:53:32.833Z,100695.47
2023-03-12T04:54:24.536Z,100703.28
2023-03-12T04:55:16.891Z,100703.44
2023-03-12T04:56:08.571Z,100699.19
2023-03-12T04:57:00.365Z,100704.31
2023-03-12T04:57:51.996Z,100706.03
2023-03-12T04:58:43.675Z,100699.19
2023-03-12T04:59:35.777Z,100695.84
2023-03-12T05:00:27.524Z,100696.09
2023-03-12T05:01:31.946Z,100693.44
2023-03-12T05:02:24.196Z,100704.50
2023-03-12T05:03:16.714Z,100694.97
2023-03-12T05:04:09.956Z,100696.81
2023-03-12T05:05:01.851Z,100701.13
2023-03-12T05:05:53.404Z,100698.41
2023-03-12T05:06:45.036Z,100698.41
2023-03-12T05:07:36.513Z,100703.81
2023-03-12T05:08:27.990Z,100700.09
2023-03-12T05:09:19.645Z,100702.66
2023-03-12T05:10:11.476Z,100706.09
2023-03-12T05:11:03.504Z,100703.44
2023-03-12T05:11:55.135Z,100702.47
2023-03-12T05:12:47.384Z,100705.13
2023-03-12T05:13:38.893Z,100701.06
2023-03-12T05:14:30.450Z,100697.34
2023-03-12T05:15:22.862Z,100700.44
2023-03-12T05:16:15.755Z,100693.28
2023-03-12T05:17:07.483Z,100700.19
2023-03-12T05:17:59.725Z,100689.81
2023-03-12T05:18:51.368Z,100689.66
2023-03-12T05:19:43.179Z,100691.13
2023-03-12T05:20:34.723Z,100690.97
2023-03-12T05:21:26.269Z,100687.00
2023-03-12T05:22:19.922Z,100686.81
2023-03-12T05:23:11.609Z,100687.69
2023-03-12T05:24:03.429Z,100687.00
2023-03-12T05:24:55.229Z,100688.66
2023-03-12T05:25:46.802Z,100679.03
2023-03-12T05:26:38.420Z,100678.94
2023-03-12T05:27:39.931Z,100682.38
2023-03-12T05:28:31.565Z,100678.06
2023-03-12T05:29:26.368Z,100677.06
2023-03-12T05:30:19.217Z,100670.97
2023-03-12T05:31:12.823Z,100660.81
2023-03-12T05:32:05.300Z,100669.28
2023-03-12T05:32:57.148Z,100669.28
2023-03-12T05:33:51.636Z,100667.63
2023-03-12T05:34:44.297Z,100660.81
2023-03-12T05:35:35.923Z,100674.50
2023-03-12T05:36:27.773Z,100667.19
2023-03-12T05:37:19.358Z,100669.56
2023-03-12T05:38:13.660Z,100664.25
2023-03-12T05:39:05.383Z,100672.75
2023-03-12T05:39:58.250Z,100667.63
2023-03-12T05:40:55.723Z,100659.94
2023-03-12T05:41:47.769Z,100666.72
2023-03-12T05:42:42.786Z,100655.69
2023-03-12T05:43:34.524Z,100647.22
2023-03-12T05:44:27.095Z,100650.66
2023-03-12T05:45:20.063Z,100647.22
2023-03-12T05:46:15.849Z,100643.06
2023-03-12T05:47:08.857Z,100640.31
2023-03-12T05:48:00.365Z,100648.19
2023-03-12T05:48:53.675Z,100643.66
2023-03-12T05:49:45.575Z,100640.31
2023-03-12T05:50:37.147Z,100642.00
2023-03-12T05:51:28.761Z,100646.31
2023-03-12T05:52:20.386Z,100644.72
2023-03-12T05:53:12.404Z,100648.09
2023-03-12T05:54:04.482Z,100646.44
2023-03-12T05:54:56.114Z,100642.97
2023-03-12T05:55:47.822Z,100643.94
2023-03-12T05:56:40.079Z,100638.19
2023-03-12T05:57:32.341Z,100622.56
2023-03-12T05:58:25.295Z,100630.34
2023-03-12T05:59:17.169Z,100619.72
2023-03-12T06:00:09.849Z,100630.59
2023-03-12T06:01:22.391Z,100625.47
2023-03-12T06:02:14.061Z,100627.25
2023-03-12T06:03:05.758Z,100626.44
2023-03-12T06:03:58.261Z,100623.94
2023-03-12T06:04:50.687Z,100626.63
2023-03-12T06:05:45.298Z,100623.25
2023-03-12T06:06:38.280Z,100623.38
2023-03-12T06:07:30.117Z,100622.66
2023-03-12T06:08:22.654Z,100611.53
2023-03-12T06:09:14.643Z,100624.59
2023-03-12T06:10:07.455Z,100614.94
2023-03-12T06:10:59.405Z,100603.38
2023-03-12T06:11:51.069Z,100611.25
2023-03-12T06:12:43.407Z,100612.84
2023-03-12T06:13:35.117Z,100608.69
2023-03-12T06:14:26.874Z,100612.84
2023-03-12T06:15:19.505Z,100606.75
2023-03-12T06:16:18.444Z,100608.50
2023-03-12T06:17:10.129Z,100607.63
2023-03-12T06:18:01.841Z,100605.94
2023-03-12T06:18:58.725Z,100607.00
2023-03-12T06:19:52.769Z,100600.56
2023-03-12T06:20:45.460Z,100597.97
2023-03-12T06:21:36.948Z,100598.69
2023-03-12T06:22:31.198Z,100602.31
2023-03-12T06:23:22.716Z,100606.66
2023-03-12T06:24:14.320Z,100605.69
2023-03-12T06:25:12.920Z,100603.91
2023-03-12T06:26:06.842Z,100611.59
2023-03-12T06:26:59.236Z,100611.66
2023-03-12T06:27:50.747Z,100601.41
2023-03-12T06:28:43.056Z,100609.22
2023-03-12T06:29:34.562Z,100604.88
2023-03-12T06:30:27.550Z,100605.84
2023-03-12T06:31:20.560Z,100595.69
2023-03-12T06:32:12.162Z,100596.91
2023-03-12T06:33:04.685Z,100592.03
2023-03-12T06:33:56.262Z,100593.00
2023-03-12T06:34:47.779Z,100598.16
2023-03-12T06:35:39.326Z,100599.97
2023-03-12T06:36:30.961Z,100597.34
2023-03-12T06:37:22.518Z,100596.38
2023-03-12T06:38:14.316Z,100595.75
2023-03-12T06:39:09.668Z,100599.28
2023-03-12T06:40:01.172Z,100602.53
2023-03-12T06:41:02.850Z,100605.22
2023-03-12T06:41:54.431Z,100598.31
2023-03-12T06:42:45.977Z,100602.66
2023-03-12T06:43:38.440Z,100605.72
2023-03-12T06:44:30.065Z,100604.06
2023-03-12T06:45:21.637Z,100611.66
2023-03-12T06:46:16.913Z,100610.84
2023-03-12T06:47:08.537Z,100606.69
2023-03-12T06:47:59.980Z,100609.34
2023-03-12T06:48:51.520Z,100614.53
2023-03-12T06:49:43.189Z,100614.81
2023-03-12T06:50:34.694Z,100604.78
2023-03-12T06:51:26.174Z,100595.59
2023-03-12T06:52:17.666Z,100590.09
2023-03-12T06:53:09.309Z,100590.09
2023-03-12T06:54:02.452Z,100587.44
2023-03-12T06:54:54.028Z,100590.09
2023-03-12T06:55:46.964Z,100591.06
2023-03-12T06:56:38.479Z,100591.22
2023-03-12T06:57:30.029Z,100589.47
2023-03-12T06:58:21.510Z,100594.75
2023-03-12T06:59:12.999Z,100598.34
2023-03-12T07:00:05.451Z,100597.09
2023-03-12T07:00:57.473Z,100594.53
2023-03-12T07:01:49.560Z,100602.94
2023-03-12T07:02:41.093Z,100601.00
2023-03-12T07:03:32.779Z,100607.00
2023-03-12T07:04:24.265Z,100607.75
2023-03-12T07:05:16.022Z,100615.28
2023-03-12T07:06:14.833Z,100614.31
2023-03-12T07:07:08.504Z,100617.53
2023-03-12T07:08:00.181Z,100617.41
2023-03-12T07:08:52.733Z,100616.56
2023-03-12T07:09:44.239Z,100620.78
2023-03-12T07:10:35.706Z,100610.63
2023-03-12T07:11:27.255Z,100614.84
2023-03-12T07:12:18.899Z,100612.63
2023-03-12T07:13:10.664Z,100613.09
2023-03-12T07:14:02.225Z,100614.84
2023-03-12T07:14:53.816Z,100609.66
2023-03-12T07:15:46.468Z,100614.94
2023-03-12T07:16:38.253Z,100614.00
2023-03-12T07:17:29.769Z,100616.56
2023-03-12T07:18:21.270Z,100615.13
2023-03-12T07:19:13.156Z,100606.69
2023-03-12T07:20:05.700Z,100621.38
2023-03-12T07:20:57.181Z,100605.19
2023-03-12T07:21:48.649Z,100615.78
2023-03-12T07:22:40.498Z,100613.91
2023-03-12T07:23:32.084Z,100613.31
2023-03-12T07:24:23.711Z,100612.50
2023-03-12T07:25:17.248Z,100603.03
2023-03-12T07:26:09.420Z,100604.59
2023-03-12T07:27:01.746Z,100601.19
2023-03-12T07:27:53.230Z,100602.41
2023-03-12T07:28:45.205Z,100606.09
2023-03-12T07:29:36.678Z,100599.09
2023-03-12T07:30:28.225Z,100596.63
2023-03-12T07:31:19.711Z,100593.16
2023-03-12T07:32:11.592Z,100598.72
2023-03-12T07:33:08.941Z,100597.75
2023-03-12T07:34:02.892Z,100602.25
2023-03-12T07:34:54.462Z,100599.69
2023-03-12T07:35:50.089Z,100607.81
2023-03-12T07:36:43.237Z,100607.97
2023-03-12T07:37:34.862Z,100607.22
2023-03-12T07:38:27.156Z,100611.50
2023-03-12T07:39:19.369Z,100603.94
2023-03-12T07:40:11.483Z,100609.94
2023-03-12T07:41:03.075Z,100604.66
2023-03-12T07:41:54.745Z,100604.50
2023-03-12T07:42:46.890Z,100600.91
2023-03-12T07:43:38.504Z,100603.53
2023-03-12T07:44:30.128Z,100602.88
2023-03-12T07:45:22.346Z,100606.84
2023-03-12T07:46:14.072Z,100604.28
2023-03-12T07:47:22.385Z,100606.03
2023-03-12T07:48:15.099Z,100600.16
2023-03-12T07:49:06.600Z,100597.69
2023-03-12T07:49:58.253Z,100602.19
2023-03-12T07:50:49.956Z,100600.56
2023-03-12T07:51:41.453Z,100604.81
2023-03-12T07:52:33.318Z,100597.03
2023-03-12T07:53:24.899Z,100606.25
2023-03-12T07:54:16.445Z,100598.50
2023-03-12T07:55:09.190Z,100596.00
2023-03-12T07:56:00.895Z,100602.97
2023-03-12T07:56:52.541Z,100595.50
2023-03-12T07:57:44.563Z,100605.22
2023-03-12T07:58:44.382Z,100599.19
2023-03-12T07:59:35.948Z,100603.47
2023-03-12T08:00:27.999Z,100594.94
2023-03-12T08:01:19.549Z,100591.66
2023-03-12T08:02:11.096Z,100595.91
2023-03-12T08:03:02.942Z,100601.13
2023-03-12T08:03:54.682Z,100595.97
2023-03-12T08:04:46.863Z,100595.91
2023-03-12T08:05:38.602Z,100593.50
2023-03-12T08:06:30.200Z,100592.00
2023-03-12T08:07:21.725Z,100588.19
2023-03-12T08:08:13.300Z,100587.31
2023-03-12T08:09:04.864Z,100582.97
2023-03-12T08:09:56.454Z,100591.66
2023-03-12T08:10:47.989Z,100587.47
2023-03-12T08:11:39.538Z,100591.88
2023-03-12T08:12:31.098Z,100589.69
2023-03-12T08:13:24.324Z,100591.41
2023-03-12T08:14:15.880Z,100592.41
2023-03-12T08:15:08.881Z,100591.47
2023-03-12T08:16:00.458Z,100593.97
2023-03-12T08:16:52.316Z,100593.88
2023-03-12T08:17:44.578Z,100594.69
2023-03-12T08:18:36.303Z,100590.25
2023-03-12T08:19:28.311Z,100593.56
2023-03-12T08:20:19.974Z,100602.25
2023-03-12T08:21:11.629Z,100596.28
2023-03-12T08:22:03.104Z,100598.94
2023-03-12T08:22:54.641Z,100593.88
2023-03-12T08:23:46.443Z,100600.06
2023-03-12T08:24:37.961Z,100603.75
2023-03-12T08:25:29.906Z,100602.84
2023-03-12T08:26:21.530Z,100604.72
2023-03-12T08:27:14.094Z,100599.72
2023-03-12T08:28:05.989Z,100597.22
2023-03-12T08:28:57.621Z,100596.41
2023-03-12T08:29:49.164Z,100600.28
2023-03-12T08:30:46.286Z,100594.22
2023-03-12T08:31:38.291Z,100586.53
2023-03-12T08:32:29.868Z,100603.72
2023-03-12T08:33:22.303Z,100591.97
2023-03-12T08:34:14.082Z,100600.88
2023-03-12T08:35:05.952Z,100602.53
2023-03-12T08:35:57.577Z,100606.00
2023-03-12T08:36:49.037Z,100608.75
2023-03-12T08:37:41.484Z,100610.56
2023-03-12T08:38:32.926Z,100605.25
2023-03-12T08:39:24.408Z,100602.84
2023-03-12T08:40:16.333Z,100604.56
2023-03-12T08:41:07.869Z,100604.56
2023-03-12T08:41:59.418Z,100604.56
2023-03-12T08:42:51.055Z,100607.03
2023-03-12T08:43:42.547Z,100612.13
2023-03-12T08:44:34.028Z,100605.25
2023-03-12T08:45:25.501Z,100610.56
2023-03-12T08:46:17.172Z,100607.28
2023-03-12T08:47:08.658Z,100603.00
2023-03-12T08:48:00.113Z,100605.34
2023-03-12T08:48:51.658Z,100603.00
2023-03-12T08:49:43.188Z,100603.19
2023-03-12T08:50:34.690Z,100601.47
2023-03-12T08:51:26.317Z,100602.53
2023-03-12T08:52:17.790Z,100594.06
2023-03-12T08:53:09.314Z,100597.72
2023-03-12T08:54:00.816Z,100590.31
2023-03-12T08:54:52.351Z,100596.41
2023-03-12T08:55:44.053Z,100589.16
2023-03-12T08:56:38.553Z,100590.97
2023-03-12T08:57:30.066Z,100588.81
2023-03-12T08:58:23.552Z,100587.00
2023-03-12T08:59:15.059Z,100591.47
2023-03-12T09:00:11.427Z,100587.88
2023-03-12T09:01:09.024Z,100587.72
2023-03-12T09:02:01.328Z,100590.25
2023-03-12T09:02:54.131Z,100584.19
2023-03-12T09:03:47.422Z,100584.44
2023-03-12T09:04:38.921Z,100586.38
2023-03-12T09:05:32.771Z,100576.47
2023-03-12T09:06:24.257Z,100577.66
2023-03-12T09:07:18.392Z,100576.88
2023-03-12T09:08:11.592Z,100577.84
2023-03-12T09:09:06.264Z,100576.31
2023-03-12T09:09:57.889Z,100577.25
2023-03-12T09:10:50.146Z,100577.16
2023-03-12T09:11:42.427Z,100570.13
2023-03-12T09:12:34.212Z,100574.41
2023-03-12T09:13:30.846Z,100574.44
2023-03-12T09:15:43.783Z,100581.88
2023-03-12T09:16:35.331Z,100575.84
2023-03-12T09:17:30.383Z,100578.28
2023-03-12T09:18:21.870Z,100582.84
2023-03-12T09:19:13.628Z,100579.31
2023-03-12T09:20:08.775Z,100579.19
2023-03-12T09:21:01.085Z,100577.66
2023-03-12T09:21:52.546Z,100579.28
2023-03-12T09:22:44.489Z,100587.84
2023-03-12T09:23:35.943Z,100586.03
2023-03-12T09:24:27.497Z,100583.59
2023-03-12T09:25:19.159Z,100583.59
2023-03-12T09:26:12.764Z,100588.00
2023-03-12T09:27:04.298Z,100588.94
2023-03-12T09:27:55.934Z,100586.47
2023-03-12T09:28:47.675Z,100595.84
2023-03-12T09:29:46.596Z,100593.28
2023-03-12T09:30:45.000Z,100602.03
2023-03-12T09:31:37.023Z,100589.16
2023-03-12T09:32:29.619Z,100591.59
2023-03-12T09:33:21.151Z,100598.25
2023-03-12T09:34:12.661Z,100593.81
2023-03-12T09:35:05.746Z,100596.25
2023-03-12T09:35:58.914Z,100598.78
2023-03-12T09:36:50.572Z,100586.75
2023-03-12T09:37:42.108Z,100598.69
2023-03-12T09:38:35.430Z,100592.00
2023-03-12T09:39:26.932Z,100595.53
2023-03-12T09:40:23.768Z,100589.97
2023-03-12T09:41:23.501Z,100594.47
2023-03-12T09:42:25.061Z,100592.97
2023-03-12T09:43:32.567Z,100598.25
2023-03-12T09:44:33.835Z,100595.91
2023-03-12T09:45:30.774Z,100596.78
2023-03-12T09:46:50.362Z,100591.63
2023-03-12T09:47:49.548Z,100586.69
2023-03-12T09:48:42.088Z,100590.38
2023-03-12T09:49:43.112Z,100589.47
2023-03-12T09:50:43.671Z,100590.81
2023-03-12T09:51:43.833Z,100588.91
2023-03-12T09:52:42.641Z,100598.13
2023-03-12T09:53:42.278Z,100594.69
2023-03-12T09:54:47.430Z,100596.63
2023-03-12T09:55:44.630Z,100587.28
2023-03-12T09:56:36.227Z,100598.69
2023-03-12T09:57:29.926Z,100594.56
2023-03-12T09:58:32.130Z,100601.34
2023-03-12T09:59:24.085Z,100587.50
2023-03-12T10:00:19.935Z,100598.91
2023-03-12T10:01:33.369Z,100598.00
2023-03-12T10:02:45.879Z,100597.19
2023-03-12T10:04:12.919Z,100602.50
2023-03-12T10:05:17.762Z,100602.34
2023-03-12T10:06:27.555Z,100596.31
2023-03-12T10:07:31.223Z,100595.72
2023-03-12T10:08:55.905Z,100589.91
2023-03-12T10:09:53.543Z,100589.41